sensor_id;sensor_type;location;lat;lon;timestamp;P1;durP1;ratioP1;P2;durP2;ratioP2
33357;SDS011;19717;42.614;23.418;2022-08-24T00:00:49;20.23;;;10.30;;
33357;SDS011;19717;42.614;23.418;2022-08-24T00:03:15;18.27;;;10.93;;
33357;SDS011;19717;42.614;23.418;2022-08-24T00:05:41;18.67;;;10.63;;
33357;SDS011;19717;42.614;23.418;2022-08-24T00:08:07;17.83;;;11.00;;
33357;SDS011;19717;42.614;23.418;2022-08-24T00:10:33;17.73;;;10.93;;
33357;SDS011;19717;42.614;23.418;2022-08-24T00:12:59;22.55;;;10.85;;
33357;SDS011;19717;42.614;23.418;2022-08-24T00:15:25;16.95;;;10.40;;
33357;SDS011;19717;42.614;23.418;2022-08-24T00:17:51;14.85;;;10.35;;
33357;SDS011;19717;42.614;23.418;2022-08-24T00:20:17;25.15;;;10.73;;
33357;SDS011;19717;42.614;23.418;2022-08-24T00:22:43;16.30;;;11.15;;
33357;SDS011;19717;42.614;23.418;2022-08-24T00:25:10;14.88;;;10.13;;
33357;SDS011;19717;42.614;23.418;2022-08-24T00:27:37;16.65;;;9.95;;
33357;SDS011;19717;42.614;23.418;2022-08-24T00:30:04;17.48;;;10.77;;
33357;SDS011;19717;42.614;23.418;2022-08-24T00:32:31;23.40;;;10.73;;
33357;SDS011;19717;42.614;23.418;2022-08-24T00:34:57;22.85;;;10.88;;
33357;SDS011;19717;42.614;23.418;2022-08-24T00:37:23;16.13;;;10.90;;
33357;SDS011;19717;42.614;23.418;2022-08-24T00:39:49;18.77;;;11.60;;
33357;SDS011;19717;42.614;23.418;2022-08-24T00:42:15;19.33;;;11.60;;
33357;SDS011;19717;42.614;23.418;2022-08-24T00:44:42;19.75;;;10.63;;
33357;SDS011;19717;42.614;23.418;2022-08-24T00:47:13;17.15;;;10.70;;
33357;SDS011;19717;42.614;23.418;2022-08-24T00:49:43;18.60;;;11.23;;
33357;SDS011;19717;42.614;23.418;2022-08-24T00:54:45;27.13;;;11.30;;
33357;SDS011;19717;42.614;23.418;2022-08-24T00:57:12;17.33;;;10.30;;
33357;SDS011;19717;42.614;23.418;2022-08-24T00:59:44;21.98;;;10.68;;
33357;SDS011;19717;42.614;23.418;2022-08-24T01:02:13;21.52;;;10.38;;
33357;SDS011;19717;42.614;23.418;2022-08-24T01:05:00;21.33;;;10.07;;
33357;SDS011;19717;42.614;23.418;2022-08-24T01:07:27;20.35;;;11.20;;
33357;SDS011;19717;42.614;23.418;2022-08-24T01:09:54;19.65;;;11.23;;
33357;SDS011;19717;42.614;23.418;2022-08-24T01:12:21;24.35;;;11.63;;
33357;SDS011;19717;42.614;23.418;2022-08-24T01:14:48;27.85;;;11.80;;
33357;SDS011;19717;42.614;23.418;2022-08-24T01:17:14;17.33;;;11.50;;
33357;SDS011;19717;42.614;23.418;2022-08-24T01:20:00;20.90;;;11.50;;
33357;SDS011;19717;42.614;23.418;2022-08-24T01:25:14;25.05;;;11.52;;
33357;SDS011;19717;42.614;23.418;2022-08-24T01:27:40;20.48;;;11.85;;
33357;SDS011;19717;42.614;23.418;2022-08-24T01:30:10;19.83;;;11.75;;
33357;SDS011;19717;42.614;23.418;2022-08-24T01:32:37;28.42;;;12.15;;
33357;SDS011;19717;42.614;23.418;2022-08-24T01:35:05;23.42;;;12.55;;
33357;SDS011;19717;42.614;23.418;2022-08-24T01:37:31;20.20;;;12.30;;
33357;SDS011;19717;42.614;23.418;2022-08-24T01:39:59;24.27;;;12.30;;
33357;SDS011;19717;42.614;23.418;2022-08-24T01:42:25;24.48;;;12.45;;
33357;SDS011;19717;42.614;23.418;2022-08-24T01:44:53;21.17;;;12.63;;
33357;SDS011;19717;42.614;23.418;2022-08-24T01:47:20;21.45;;;12.35;;
33357;SDS011;19717;42.614;23.418;2022-08-24T01:49:46;33.28;;;17.13;;
33357;SDS011;19717;42.614;23.418;2022-08-24T01:52:15;29.15;;;16.65;;
33357;SDS011;19717;42.614;23.418;2022-08-24T01:54:41;41.13;;;19.48;;
33357;SDS011;19717;42.614;23.418;2022-08-24T01:57:07;50.53;;;21.13;;
33357;SDS011;19717;42.614;23.418;2022-08-24T01:59:33;47.70;;;22.48;;
33357;SDS011;19717;42.614;23.418;2022-08-24T02:02:05;47.30;;;21.20;;
33357;SDS011;19717;42.614;23.418;2022-08-24T02:04:34;54.20;;;23.48;;
33357;SDS011;19717;42.614;23.418;2022-08-24T02:07:01;47.15;;;21.95;;
33357;SDS011;19717;42.614;23.418;2022-08-24T02:09:27;47.28;;;21.77;;
33357;SDS011;19717;42.614;23.418;2022-08-24T02:11:53;51.22;;;22.75;;
33357;SDS011;19717;42.614;23.418;2022-08-24T02:14:20;49.30;;;23.13;;
33357;SDS011;19717;42.614;23.418;2022-08-24T02:16:46;57.55;;;24.15;;
33357;SDS011;19717;42.614;23.418;2022-08-24T02:19:12;60.63;;;25.15;;
33357;SDS011;19717;42.614;23.418;2022-08-24T02:21:39;58.42;;;24.67;;
33357;SDS011;19717;42.614;23.418;2022-08-24T02:24:05;58.30;;;25.17;;
33357;SDS011;19717;42.614;23.418;2022-08-24T02:26:31;63.35;;;24.63;;
33357;SDS011;19717;42.614;23.418;2022-08-24T02:28:57;62.28;;;24.95;;
33357;SDS011;19717;42.614;23.418;2022-08-24T02:31:23;58.17;;;24.40;;
33357;SDS011;19717;42.614;23.418;2022-08-24T02:33:49;62.72;;;24.80;;
33357;SDS011;19717;42.614;23.418;2022-08-24T02:36:15;59.45;;;24.45;;
33357;SDS011;19717;42.614;23.418;2022-08-24T02:38:41;60.08;;;24.67;;
33357;SDS011;19717;42.614;23.418;2022-08-24T02:41:09;61.50;;;24.70;;
33357;SDS011;19717;42.614;23.418;2022-08-24T02:43:35;58.17;;;22.75;;
33357;SDS011;19717;42.614;23.418;2022-08-24T02:46:01;54.83;;;23.30;;
33357;SDS011;19717;42.614;23.418;2022-08-24T02:48:28;55.08;;;23.35;;
33357;SDS011;19717;42.614;23.418;2022-08-24T02:50:54;57.45;;;24.45;;
33357;SDS011;19717;42.614;23.418;2022-08-24T02:53:20;51.10;;;22.35;;
33357;SDS011;19717;42.614;23.418;2022-08-24T02:55:46;57.55;;;21.80;;
33357;SDS011;19717;42.614;23.418;2022-08-24T02:58:13;52.05;;;22.33;;
33357;SDS011;19717;42.614;23.418;2022-08-24T03:00:40;47.58;;;19.80;;
33357;SDS011;19717;42.614;23.418;2022-08-24T03:03:07;45.90;;;20.15;;
33357;SDS011;19717;42.614;23.418;2022-08-24T03:05:33;46.72;;;19.90;;
33357;SDS011;19717;42.614;23.418;2022-08-24T03:08:00;41.42;;;18.92;;
33357;SDS011;19717;42.614;23.418;2022-08-24T03:10:26;45.45;;;19.83;;
33357;SDS011;19717;42.614;23.418;2022-08-24T03:12:53;44.30;;;20.50;;
33357;SDS011;19717;42.614;23.418;2022-08-24T03:15:19;38.20;;;18.40;;
33357;SDS011;19717;42.614;23.418;2022-08-24T03:17:47;43.08;;;19.25;;
33357;SDS011;19717;42.614;23.418;2022-08-24T03:20:14;41.70;;;19.98;;
33357;SDS011;19717;42.614;23.418;2022-08-24T03:22:40;48.60;;;19.13;;
33357;SDS011;19717;42.614;23.418;2022-08-24T03:25:07;42.03;;;19.35;;
33357;SDS011;19717;42.614;23.418;2022-08-24T03:27:33;42.45;;;18.95;;
33357;SDS011;19717;42.614;23.418;2022-08-24T03:30:00;34.80;;;17.55;;
33357;SDS011;19717;42.614;23.418;2022-08-24T03:32:26;44.45;;;19.00;;
33357;SDS011;19717;42.614;23.418;2022-08-24T03:34:52;44.75;;;19.08;;
33357;SDS011;19717;42.614;23.418;2022-08-24T03:37:19;42.50;;;19.00;;
33357;SDS011;19717;42.614;23.418;2022-08-24T03:39:45;38.90;;;18.90;;
33357;SDS011;19717;42.614;23.418;2022-08-24T03:42:15;37.50;;;17.55;;
33357;SDS011;19717;42.614;23.418;2022-08-24T03:44:41;37.70;;;17.70;;
33357;SDS011;19717;42.614;23.418;2022-08-24T03:47:07;38.13;;;17.90;;
33357;SDS011;19717;42.614;23.418;2022-08-24T03:49:35;41.17;;;19.98;;
33357;SDS011;19717;42.614;23.418;2022-08-24T03:52:01;38.08;;;17.83;;
33357;SDS011;19717;42.614;23.418;2022-08-24T03:54:27;44.50;;;18.65;;
33357;SDS011;19717;42.614;23.418;2022-08-24T03:56:53;36.78;;;19.02;;
33357;SDS011;19717;42.614;23.418;2022-08-24T03:59:19;44.53;;;18.00;;
33357;SDS011;19717;42.614;23.418;2022-08-24T04:01:45;33.45;;;17.30;;
33357;SDS011;19717;42.614;23.418;2022-08-24T04:04:11;35.53;;;18.05;;
33357;SDS011;19717;42.614;23.418;2022-08-24T04:06:37;35.72;;;18.20;;
33357;SDS011;19717;42.614;23.418;2022-08-24T04:09:08;38.90;;;18.05;;
33357;SDS011;19717;42.614;23.418;2022-08-24T04:11:34;42.88;;;19.13;;
33357;SDS011;19717;42.614;23.418;2022-08-24T04:14:01;33.85;;;17.00;;
33357;SDS011;19717;42.614;23.418;2022-08-24T04:16:27;37.72;;;18.30;;
33357;SDS011;19717;42.614;23.418;2022-08-24T04:18:55;35.78;;;17.88;;
33357;SDS011;19717;42.614;23.418;2022-08-24T04:21:23;31.52;;;17.25;;
33357;SDS011;19717;42.614;23.418;2022-08-24T04:23:49;32.22;;;17.63;;
33357;SDS011;19717;42.614;23.418;2022-08-24T04:26:17;28.73;;;15.35;;
33357;SDS011;19717;42.614;23.418;2022-08-24T04:28:43;28.85;;;15.57;;
33357;SDS011;19717;42.614;23.418;2022-08-24T04:31:09;30.45;;;14.63;;
33357;SDS011;19717;42.614;23.418;2022-08-24T04:33:35;24.25;;;12.98;;
33357;SDS011;19717;42.614;23.418;2022-08-24T04:36:05;25.83;;;14.85;;
33357;SDS011;19717;42.614;23.418;2022-08-24T04:38:31;21.67;;;13.68;;
33357;SDS011;19717;42.614;23.418;2022-08-24T04:40:58;21.17;;;13.23;;
33357;SDS011;19717;42.614;23.418;2022-08-24T04:43:24;27.13;;;14.90;;
33357;SDS011;19717;42.614;23.418;2022-08-24T04:45:50;20.65;;;12.52;;
33357;SDS011;19717;42.614;23.418;2022-08-24T04:48:16;22.38;;;13.68;;
33357;SDS011;19717;42.614;23.418;2022-08-24T04:50:43;25.67;;;13.82;;
33357;SDS011;19717;42.614;23.418;2022-08-24T04:53:10;22.23;;;13.93;;
33357;SDS011;19717;42.614;23.418;2022-08-24T04:55:42;21.10;;;12.45;;
33357;SDS011;19717;42.614;23.418;2022-08-24T04:58:09;19.67;;;12.15;;
33357;SDS011;19717;42.614;23.418;2022-08-24T05:00:35;17.98;;;11.63;;
33357;SDS011;19717;42.614;23.418;2022-08-24T05:03:02;18.05;;;11.38;;
33357;SDS011;19717;42.614;23.418;2022-08-24T05:05:28;20.42;;;11.32;;
33357;SDS011;19717;42.614;23.418;2022-08-24T05:07:54;18.20;;;12.13;;
33357;SDS011;19717;42.614;23.418;2022-08-24T05:10:20;16.15;;;10.82;;
33357;SDS011;19717;42.614;23.418;2022-08-24T05:12:47;19.83;;;11.40;;
33357;SDS011;19717;42.614;23.418;2022-08-24T05:15:13;17.92;;;10.43;;
33357;SDS011;19717;42.614;23.418;2022-08-24T05:17:40;16.13;;;10.30;;
33357;SDS011;19717;42.614;23.418;2022-08-24T05:20:07;17.05;;;9.65;;
33357;SDS011;19717;42.614;23.418;2022-08-24T05:22:34;16.27;;;8.60;;
33357;SDS011;19717;42.614;23.418;2022-08-24T05:25:00;12.48;;;9.13;;
33357;SDS011;19717;42.614;23.418;2022-08-24T05:27:26;16.98;;;9.40;;
33357;SDS011;19717;42.614;23.418;2022-08-24T05:29:52;14.25;;;9.43;;
33357;SDS011;19717;42.614;23.418;2022-08-24T05:32:18;18.85;;;8.90;;
33357;SDS011;19717;42.614;23.418;2022-08-24T05:34:45;13.43;;;8.63;;
33357;SDS011;19717;42.614;23.418;2022-08-24T05:37:11;13.95;;;9.10;;
33357;SDS011;19717;42.614;23.418;2022-08-24T05:39:37;12.98;;;8.77;;
33357;SDS011;19717;42.614;23.418;2022-08-24T05:42:03;13.95;;;9.20;;
33357;SDS011;19717;42.614;23.418;2022-08-24T05:44:29;12.50;;;7.85;;
33357;SDS011;19717;42.614;23.418;2022-08-24T05:46:56;14.13;;;8.80;;
33357;SDS011;19717;42.614;23.418;2022-08-24T05:49:25;16.30;;;8.20;;
33357;SDS011;19717;42.614;23.418;2022-08-24T05:51:52;11.15;;;7.53;;
33357;SDS011;19717;42.614;23.418;2022-08-24T05:54:19;9.95;;;7.60;;
33357;SDS011;19717;42.614;23.418;2022-08-24T05:56:47;10.00;;;7.40;;
33357;SDS011;19717;42.614;23.418;2022-08-24T05:59:13;10.70;;;7.43;;
33357;SDS011;19717;42.614;23.418;2022-08-24T06:01:42;11.73;;;7.05;;
33357;SDS011;19717;42.614;23.418;2022-08-24T06:04:08;8.05;;;6.75;;
33357;SDS011;19717;42.614;23.418;2022-08-24T06:06:34;10.80;;;7.30;;
33357;SDS011;19717;42.614;23.418;2022-08-24T06:09:00;9.20;;;6.63;;
33357;SDS011;19717;42.614;23.418;2022-08-24T06:11:29;12.02;;;7.18;;
33357;SDS011;19717;42.614;23.418;2022-08-24T06:13:58;11.00;;;7.05;;
33357;SDS011;19717;42.614;23.418;2022-08-24T06:16:24;14.93;;;7.22;;
33357;SDS011;19717;42.614;23.418;2022-08-24T06:18:51;15.32;;;7.38;;
33357;SDS011;19717;42.614;23.418;2022-08-24T06:21:19;12.25;;;8.98;;
33357;SDS011;19717;42.614;23.418;2022-08-24T06:23:46;12.73;;;9.27;;
33357;SDS011;19717;42.614;23.418;2022-08-24T06:26:12;12.85;;;8.52;;
33357;SDS011;19717;42.614;23.418;2022-08-24T06:28:57;11.18;;;7.32;;
33357;SDS011;19717;42.614;23.418;2022-08-24T06:31:27;9.70;;;7.60;;
33357;SDS011;19717;42.614;23.418;2022-08-24T06:33:53;10.68;;;7.72;;
33357;SDS011;19717;42.614;23.418;2022-08-24T06:36:19;9.48;;;6.95;;
33357;SDS011;19717;42.614;23.418;2022-08-24T06:38:46;11.82;;;6.68;;
33357;SDS011;19717;42.614;23.418;2022-08-24T06:41:12;8.55;;;6.93;;
33357;SDS011;19717;42.614;23.418;2022-08-24T06:43:38;14.95;;;6.97;;
33357;SDS011;19717;42.614;23.418;2022-08-24T06:46:05;12.25;;;7.90;;
33357;SDS011;19717;42.614;23.418;2022-08-24T06:48:31;13.82;;;7.57;;
33357;SDS011;19717;42.614;23.418;2022-08-24T06:50:58;11.52;;;7.50;;
33357;SDS011;19717;42.614;23.418;2022-08-24T06:53:25;8.55;;;7.00;;
33357;SDS011;19717;42.614;23.418;2022-08-24T06:55:52;11.75;;;7.07;;
33357;SDS011;19717;42.614;23.418;2022-08-24T06:58:19;13.15;;;7.18;;
33357;SDS011;19717;42.614;23.418;2022-08-24T07:00:45;12.25;;;8.13;;
33357;SDS011;19717;42.614;23.418;2022-08-24T07:03:12;12.15;;;7.65;;
33357;SDS011;19717;42.614;23.418;2022-08-24T07:05:38;14.63;;;8.15;;
33357;SDS011;19717;42.614;23.418;2022-08-24T07:08:05;9.90;;;7.32;;
33357;SDS011;19717;42.614;23.418;2022-08-24T07:10:32;10.38;;;7.57;;
33357;SDS011;19717;42.614;23.418;2022-08-24T07:12:59;12.18;;;7.70;;
33357;SDS011;19717;42.614;23.418;2022-08-24T07:15:25;13.23;;;7.80;;
33357;SDS011;19717;42.614;23.418;2022-08-24T07:17:51;10.60;;;6.93;;
33357;SDS011;19717;42.614;23.418;2022-08-24T07:20:18;14.13;;;8.20;;
33357;SDS011;19717;42.614;23.418;2022-08-24T07:22:44;13.65;;;8.52;;
33357;SDS011;19717;42.614;23.418;2022-08-24T07:25:11;12.68;;;8.75;;
33357;SDS011;19717;42.614;23.418;2022-08-24T07:27:37;14.43;;;8.57;;
33357;SDS011;19717;42.614;23.418;2022-08-24T07:30:04;12.00;;;8.48;;
33357;SDS011;19717;42.614;23.418;2022-08-24T07:32:30;17.60;;;8.50;;
33357;SDS011;19717;42.614;23.418;2022-08-24T07:34:57;16.52;;;8.43;;
33357;SDS011;19717;42.614;23.418;2022-08-24T07:37:23;13.20;;;7.82;;
33357;SDS011;19717;42.614;23.418;2022-08-24T07:39:49;9.65;;;7.20;;
33357;SDS011;19717;42.614;23.418;2022-08-24T07:42:16;12.57;;;7.40;;
33357;SDS011;19717;42.614;23.418;2022-08-24T07:44:42;10.73;;;7.43;;
33357;SDS011;19717;42.614;23.418;2022-08-24T07:47:08;14.15;;;7.15;;
33357;SDS011;19717;42.614;23.418;2022-08-24T07:49:34;15.30;;;7.13;;
33357;SDS011;19717;42.614;23.418;2022-08-24T07:52:00;13.18;;;7.78;;
33357;SDS011;19717;42.614;23.418;2022-08-24T07:54:26;12.30;;;8.15;;
33357;SDS011;19717;42.614;23.418;2022-08-24T07:56:53;14.18;;;7.65;;
33357;SDS011;19717;42.614;23.418;2022-08-24T07:59:19;12.07;;;7.15;;
33357;SDS011;19717;42.614;23.418;2022-08-24T08:01:46;9.68;;;6.78;;
33357;SDS011;19717;42.614;23.418;2022-08-24T08:04:12;10.38;;;7.00;;
33357;SDS011;19717;42.614;23.418;2022-08-24T08:06:42;12.65;;;6.55;;
33357;SDS011;19717;42.614;23.418;2022-08-24T08:09:08;9.68;;;6.18;;
33357;SDS011;19717;42.614;23.418;2022-08-24T08:11:34;9.65;;;6.00;;
33357;SDS011;19717;42.614;23.418;2022-08-24T08:14:00;9.32;;;6.03;;
33357;SDS011;19717;42.614;23.418;2022-08-24T08:16:26;10.77;;;6.30;;
33357;SDS011;19717;42.614;23.418;2022-08-24T08:18:52;8.93;;;5.70;;
33357;SDS011;19717;42.614;23.418;2022-08-24T08:21:18;8.85;;;5.60;;
33357;SDS011;19717;42.614;23.418;2022-08-24T08:24:03;9.88;;;5.63;;
33357;SDS011;19717;42.614;23.418;2022-08-24T08:26:46;7.07;;;5.57;;
33357;SDS011;19717;42.614;23.418;2022-08-24T08:29:14;7.20;;;5.25;;
33357;SDS011;19717;42.614;23.418;2022-08-24T08:31:42;8.02;;;5.28;;
33357;SDS011;19717;42.614;23.418;2022-08-24T08:34:09;8.05;;;5.50;;
33357;SDS011;19717;42.614;23.418;2022-08-24T08:36:36;9.32;;;5.95;;
33357;SDS011;19717;42.614;23.418;2022-08-24T08:39:04;11.13;;;5.65;;
33357;SDS011;19717;42.614;23.418;2022-08-24T08:44:24;10.27;;;5.45;;
33357;SDS011;19717;42.614;23.418;2022-08-24T08:49:49;10.05;;;6.18;;
33357;SDS011;19717;42.614;23.418;2022-08-24T08:55:03;9.57;;;5.88;;
33357;SDS011;19717;42.614;23.418;2022-08-24T09:00:14;7.70;;;5.07;;
33357;SDS011;19717;42.614;23.418;2022-08-24T09:17:52;10.18;;;4.93;;
33357;SDS011;19717;42.614;23.418;2022-08-24T09:23:02;9.73;;;5.32;;
33357;SDS011;19717;42.614;23.418;2022-08-24T09:25:40;7.93;;;5.00;;
33357;SDS011;19717;42.614;23.418;2022-08-24T09:28:57;11.18;;;5.10;;
33357;SDS011;19717;42.614;23.418;2022-08-24T09:31:20;6.07;;;4.68;;
33357;SDS011;19717;42.614;23.418;2022-08-24T09:33:53;6.80;;;5.00;;
33357;SDS011;19717;42.614;23.418;2022-08-24T09:39:27;7.53;;;4.80;;
33357;SDS011;19717;42.614;23.418;2022-08-24T10:16:16;7.20;;;4.50;;
33357;SDS011;19717;42.614;23.418;2022-08-24T10:21:29;6.57;;;4.57;;
33357;SDS011;19717;42.614;23.418;2022-08-24T10:24:01;9.00;;;4.68;;
33357;SDS011;19717;42.614;23.418;2022-08-24T10:26:35;9.40;;;5.05;;
33357;SDS011;19717;42.614;23.418;2022-08-24T10:45:08;6.78;;;4.60;;
33357;SDS011;19717;42.614;23.418;2022-08-24T10:47:44;6.35;;;4.88;;
33357;SDS011;19717;42.614;23.418;2022-08-24T10:55:34;13.13;;;5.32;;
33357;SDS011;19717;42.614;23.418;2022-08-24T11:00:32;9.13;;;4.88;;
33357;SDS011;19717;42.614;23.418;2022-08-24T11:03:04;6.88;;;4.88;;
33357;SDS011;19717;42.614;23.418;2022-08-24T11:05:34;6.63;;;5.30;;
33357;SDS011;19717;42.614;23.418;2022-08-24T11:08:03;6.40;;;5.03;;
33357;SDS011;19717;42.614;23.418;2022-08-24T11:10:31;6.10;;;4.65;;
33357;SDS011;19717;42.614;23.418;2022-08-24T11:13:17;6.25;;;4.53;;
33357;SDS011;19717;42.614;23.418;2022-08-24T11:15:46;7.80;;;4.80;;
33357;SDS011;19717;42.614;23.418;2022-08-24T11:18:12;10.13;;;4.88;;
33357;SDS011;19717;42.614;23.418;2022-08-24T11:20:39;7.90;;;5.43;;
33357;SDS011;19717;42.614;23.418;2022-08-24T11:25:36;7.32;;;4.60;;
33357;SDS011;19717;42.614;23.418;2022-08-24T11:28:04;12.85;;;4.85;;
33357;SDS011;19717;42.614;23.418;2022-08-24T11:30:33;9.77;;;4.60;;
33357;SDS011;19717;42.614;23.418;2022-08-24T11:33:03;5.88;;;4.80;;
33357;SDS011;19717;42.614;23.418;2022-08-24T11:38:41;7.07;;;5.05;;
33357;SDS011;19717;42.614;23.418;2022-08-24T11:41:12;7.40;;;4.88;;
33357;SDS011;19717;42.614;23.418;2022-08-24T11:59:11;10.80;;;4.85;;
33357;SDS011;19717;42.614;23.418;2022-08-24T12:01:47;7.97;;;5.03;;
33357;SDS011;19717;42.614;23.418;2022-08-24T12:07:10;9.15;;;4.75;;
33357;SDS011;19717;42.614;23.418;2022-08-24T12:17:32;7.78;;;4.82;;
33357;SDS011;19717;42.614;23.418;2022-08-24T12:20:02;7.47;;;5.13;;
33357;SDS011;19717;42.614;23.418;2022-08-24T12:22:29;9.93;;;5.28;;
33357;SDS011;19717;42.614;23.418;2022-08-24T12:24:57;13.25;;;4.82;;
33357;SDS011;19717;42.614;23.418;2022-08-24T12:27:25;10.63;;;5.50;;
33357;SDS011;19717;42.614;23.418;2022-08-24T12:30:00;7.60;;;4.95;;
33357;SDS011;19717;42.614;23.418;2022-08-24T12:38:14;10.07;;;5.43;;
33357;SDS011;19717;42.614;23.418;2022-08-24T12:40:22;23.50;;;6.47;;
33357;SDS011;19717;42.614;23.418;2022-08-24T12:42:51;12.70;;;5.07;;
33357;SDS011;19717;42.614;23.418;2022-08-24T12:45:20;7.63;;;5.18;;
33357;SDS011;19717;42.614;23.418;2022-08-24T12:47:58;9.55;;;5.07;;
33357;SDS011;19717;42.614;23.418;2022-08-24T12:53:03;8.00;;;5.07;;
33357;SDS011;19717;42.614;23.418;2022-08-24T12:55:46;8.80;;;4.93;;
33357;SDS011;19717;42.614;23.418;2022-08-24T13:01:03;11.73;;;5.20;;
33357;SDS011;19717;42.614;23.418;2022-08-24T13:03:31;9.27;;;5.05;;
33357;SDS011;19717;42.614;23.418;2022-08-24T13:06:00;7.43;;;5.53;;
33357;SDS011;19717;42.614;23.418;2022-08-24T13:11:07;10.95;;;5.47;;
33357;SDS011;19717;42.614;23.418;2022-08-24T13:19:14;8.80;;;5.45;;
33357;SDS011;19717;42.614;23.418;2022-08-24T13:21:43;7.85;;;5.53;;
33357;SDS011;19717;42.614;23.418;2022-08-24T13:27:04;10.02;;;5.68;;
33357;SDS011;19717;42.614;23.418;2022-08-24T13:30:26;10.05;;;5.20;;
33357;SDS011;19717;42.614;23.418;2022-08-24T13:32:38;16.42;;;6.07;;
33357;SDS011;19717;42.614;23.418;2022-08-24T13:38:21;16.98;;;6.10;;
33357;SDS011;19717;42.614;23.418;2022-08-24T13:40:43;16.30;;;5.90;;
33357;SDS011;19717;42.614;23.418;2022-08-24T13:43:16;14.02;;;6.03;;
33357;SDS011;19717;42.614;23.418;2022-08-24T13:48:21;11.57;;;6.03;;
33357;SDS011;19717;42.614;23.418;2022-08-24T13:50:59;12.57;;;5.97;;
33357;SDS011;19717;42.614;23.418;2022-08-24T13:58:51;17.42;;;6.15;;
33357;SDS011;19717;42.614;23.418;2022-08-24T14:12:02;8.35;;;6.00;;
33357;SDS011;19717;42.614;23.418;2022-08-24T14:14:25;15.23;;;6.05;;
33357;SDS011;19717;42.614;23.418;2022-08-24T14:25:13;9.30;;;5.93;;
33357;SDS011;19717;42.614;23.418;2022-08-24T14:28:20;8.77;;;6.03;;
33357;SDS011;19717;42.614;23.418;2022-08-24T14:43:06;9.75;;;5.72;;
33357;SDS011;19717;42.614;23.418;2022-08-24T14:56:07;10.20;;;5.70;;
33357;SDS011;19717;42.614;23.418;2022-08-24T15:11:41;16.73;;;6.38;;
33357;SDS011;19717;42.614;23.418;2022-08-24T15:14:19;9.85;;;5.60;;
33357;SDS011;19717;42.614;23.418;2022-08-24T15:16:50;15.38;;;5.85;;
33357;SDS011;19717;42.614;23.418;2022-08-24T15:27:04;19.02;;;6.32;;
33357;SDS011;19717;42.614;23.418;2022-08-24T15:29:33;14.32;;;6.85;;
33357;SDS011;19717;42.614;23.418;2022-08-24T15:32:06;14.77;;;7.10;;
33357;SDS011;19717;42.614;23.418;2022-08-24T15:36:59;15.43;;;7.22;;
33357;SDS011;19717;42.614;23.418;2022-08-24T15:39:26;13.45;;;7.20;;
33357;SDS011;19717;42.614;23.418;2022-08-24T15:41:52;20.88;;;6.68;;
33357;SDS011;19717;42.614;23.418;2022-08-24T15:44:21;14.63;;;6.63;;
33357;SDS011;19717;42.614;23.418;2022-08-24T15:46:49;19.67;;;7.05;;
33357;SDS011;19717;42.614;23.418;2022-08-24T15:51:58;21.33;;;6.30;;
33357;SDS011;19717;42.614;23.418;2022-08-24T15:54:39;20.35;;;6.03;;
33357;SDS011;19717;42.614;23.418;2022-08-24T15:57:28;17.65;;;7.03;;
33357;SDS011;19717;42.614;23.418;2022-08-24T15:59:53;19.65;;;6.70;;
33357;SDS011;19717;42.614;23.418;2022-08-24T16:02:24;19.95;;;6.85;;
33357;SDS011;19717;42.614;23.418;2022-08-24T16:07:30;22.90;;;6.90;;
33357;SDS011;19717;42.614;23.418;2022-08-24T16:10:09;21.42;;;7.18;;
33357;SDS011;19717;42.614;23.418;2022-08-24T16:12:35;18.95;;;7.43;;
33357;SDS011;19717;42.614;23.418;2022-08-24T16:17:44;17.75;;;7.63;;
33357;SDS011;19717;42.614;23.418;2022-08-24T16:20:13;29.70;;;7.78;;
33357;SDS011;19717;42.614;23.418;2022-08-24T16:30:23;23.27;;;7.68;;
33357;SDS011;19717;42.614;23.418;2022-08-24T16:32:56;21.35;;;8.02;;
33357;SDS011;19717;42.614;23.418;2022-08-24T16:35:22;29.38;;;8.38;;
33357;SDS011;19717;42.614;23.418;2022-08-24T16:37:49;17.38;;;7.35;;
33357;SDS011;19717;42.614;23.418;2022-08-24T16:40:16;22.65;;;7.55;;
33357;SDS011;19717;42.614;23.418;2022-08-24T16:42:43;24.95;;;8.27;;
33357;SDS011;19717;42.614;23.418;2022-08-24T16:45:10;18.30;;;7.38;;
33357;SDS011;19717;42.614;23.418;2022-08-24T16:47:38;20.10;;;8.20;;
33357;SDS011;19717;42.614;23.418;2022-08-24T16:50:05;29.77;;;7.75;;
33357;SDS011;19717;42.614;23.418;2022-08-24T16:52:31;23.90;;;8.52;;
33357;SDS011;19717;42.614;23.418;2022-08-24T16:54:57;22.35;;;7.70;;
33357;SDS011;19717;42.614;23.418;2022-08-24T16:57:26;28.65;;;8.40;;
33357;SDS011;19717;42.614;23.418;2022-08-24T16:59:53;21.65;;;7.93;;
33357;SDS011;19717;42.614;23.418;2022-08-24T17:02:20;30.02;;;8.45;;
33357;SDS011;19717;42.614;23.418;2022-08-24T17:04:46;19.58;;;8.32;;
33357;SDS011;19717;42.614;23.418;2022-08-24T17:07:14;23.15;;;7.68;;
33357;SDS011;19717;42.614;23.418;2022-08-24T17:09:42;29.60;;;7.53;;
33357;SDS011;19717;42.614;23.418;2022-08-24T17:12:09;24.83;;;7.78;;
33357;SDS011;19717;42.614;23.418;2022-08-24T17:14:35;19.67;;;7.60;;
33357;SDS011;19717;42.614;23.418;2022-08-24T17:17:04;24.63;;;8.10;;
33357;SDS011;19717;42.614;23.418;2022-08-24T17:19:31;24.65;;;7.93;;
33357;SDS011;19717;42.614;23.418;2022-08-24T17:21:57;29.58;;;8.27;;
33357;SDS011;19717;42.614;23.418;2022-08-24T17:24:23;22.77;;;7.50;;
33357;SDS011;19717;42.614;23.418;2022-08-24T17:26:49;25.25;;;8.93;;
33357;SDS011;19717;42.614;23.418;2022-08-24T17:29:16;30.00;;;7.68;;
33357;SDS011;19717;42.614;23.418;2022-08-24T17:31:43;25.10;;;7.45;;
33357;SDS011;19717;42.614;23.418;2022-08-24T17:34:10;27.67;;;7.65;;
33357;SDS011;19717;42.614;23.418;2022-08-24T17:36:36;32.60;;;7.57;;
33357;SDS011;19717;42.614;23.418;2022-08-24T17:39:03;31.55;;;7.78;;
33357;SDS011;19717;42.614;23.418;2022-08-24T17:41:31;15.90;;;6.70;;
33357;SDS011;19717;42.614;23.418;2022-08-24T17:43:58;30.92;;;6.93;;
33357;SDS011;19717;42.614;23.418;2022-08-24T17:46:25;29.13;;;7.85;;
33357;SDS011;19717;42.614;23.418;2022-08-24T17:48:55;29.63;;;8.02;;
33357;SDS011;19717;42.614;23.418;2022-08-24T17:51:22;32.63;;;7.30;;
33357;SDS011;19717;42.614;23.418;2022-08-24T17:53:48;22.33;;;7.22;;
33357;SDS011;19717;42.614;23.418;2022-08-24T17:56:14;23.42;;;7.30;;
33357;SDS011;19717;42.614;23.418;2022-08-24T17:58:41;25.80;;;7.00;;
33357;SDS011;19717;42.614;23.418;2022-08-24T18:01:26;29.83;;;7.65;;
33357;SDS011;19717;42.614;23.418;2022-08-24T18:03:53;32.65;;;7.70;;
33357;SDS011;19717;42.614;23.418;2022-08-24T18:06:20;31.42;;;7.10;;
33357;SDS011;19717;42.614;23.418;2022-08-24T18:08:47;24.17;;;7.97;;
33357;SDS011;19717;42.614;23.418;2022-08-24T18:11:13;27.85;;;7.32;;
33357;SDS011;19717;42.614;23.418;2022-08-24T18:13:39;37.90;;;8.40;;
33357;SDS011;19717;42.614;23.418;2022-08-24T18:16:08;17.50;;;6.90;;
33357;SDS011;19717;42.614;23.418;2022-08-24T18:18:36;30.27;;;7.35;;
33357;SDS011;19717;42.614;23.418;2022-08-24T18:21:02;32.70;;;7.75;;
33357;SDS011;19717;42.614;23.418;2022-08-24T18:23:28;31.30;;;7.72;;
33357;SDS011;19717;42.614;23.418;2022-08-24T18:25:54;26.67;;;7.60;;
33357;SDS011;19717;42.614;23.418;2022-08-24T18:28:21;23.33;;;7.70;;